Time;durP1;ratioP1;P1;durP2;ratioP2;P2;SDS_P1;SDS_P2;PMS_P1;PMS_P2;Temp;Humidity;BMP_temperature;BMP_pressure;BME280_temperature;BME280_humidity;BME280_pressure;Samples;Min_cycle;Max_cycle;Signal;HPM_P1;HPM_P2
2021/09/12 00:00:20;;;;;;;;;;;;;;;21.71;55.19;100826.00;2082757;28;866;-62
2021/09/12 00:01:20;;;;;;;;;;;;;;;21.72;55.60;100822.38;2082935;28;759;-62
2021/09/12 00:02:21;;;;;;;;;;;;;;;21.71;55.12;100820.59;2083472;28;851;-62
2021/09/12 00:03:21;;;;;;;;;;;;;;;21.73;55.98;100818.72;2083065;28;752;-62
2021/09/12 00:04:21;;;;;;;;;;;;;;;21.70;55.24;100819.75;2083037;28;1028;-62
2021/09/12 00:05:21;;;;;;;;;;;;;;;21.71;55.01;100818.81;2083443;28;672;-62
2021/09/12 00:06:21;;;;;;;;;;;;;;;21.69;55.17;100820.69;2083344;28;917;-62
2021/09/12 00:07:21;;;;;;;;;;;;;;;21.71;55.50;100820.59;2083310;28;981;-62
2021/09/12 00:08:22;;;;;;;;;;;;;;;21.70;55.15;100819.75;2083048;28;976;-62
2021/09/12 00:09:22;;;;;;;;;;;;;;;21.68;55.18;100818.91;2082533;28;733;-62
2021/09/12 00:10:22;;;;;;;;;;;;;;;21.72;54.76;100823.25;2083144;28;798;-62
2021/09/12 00:11:22;;;;;;;;;;;;;;;21.71;54.85;100818.81;2083133;28;902;-62
2021/09/12 00:12:22;;;;;;;;;;;;;;;21.69;56.02;100820.69;2082618;28;1901;-62
2021/09/12 00:13:23;;;;;;;;;;;;;;;21.69;55.40;100817.09;2083045;28;1008;-62
2021/09/12 00:14:23;;;;;;;;;;;;;;;21.70;54.85;100816.16;2083043;28;977;-62
2021/09/12 00:15:23;;;;;;;;;;;;;;;21.70;55.25;100816.16;2083105;28;811;-62
2021/09/12 00:16:23;;;;;;;;;;;;;;;21.67;54.99;100819.84;2083081;28;732;-62
2021/09/12 00:17:24;;;;;;;;;;;;;;;21.67;55.88;100825.25;2083201;28;843;-62
2021/09/12 00:18:24;;;;;;;;;;;;;;;21.70;55.24;100818.84;2083150;28;966;-62
2021/09/12 00:19:24;;;;;;;;;;;;;;;21.69;55.32;100817.97;2083193;28;760;-62
2021/09/12 00:20:25;;;;;;;;;;;;;;;21.69;55.04;100812.59;2082875;28;791;-62
2021/09/12 00:21:25;;;;;;;;;;;;;;;21.70;55.71;100814.34;2083209;28;822;-62
2021/09/12 00:22:25;;;;;;;;;;;;;;;21.70;55.24;100810.75;2083125;28;1260;-62
2021/09/12 00:23:25;;;;;;;;;;;;;;;21.69;55.04;100806.31;2082866;28;1004;-62
2021/09/12 00:24:25;;;;;;;;;;;;;;;21.69;55.26;100806.31;2083357;28;838;-62
2021/09/12 00:25:26;;;;;;;;;;;;;;;21.68;55.08;100801.84;2082495;28;957;-62
2021/09/12 00:26:26;;;;;;;;;;;;;;;21.69;54.87;100801.81;2082913;28;982;-62
2021/09/12 00:27:26;;;;;;;;;;;;;;;21.67;55.17;100806.38;2082801;28;747;-62
2021/09/12 00:28:26;;;;;;;;;;;;;;;21.68;55.31;100799.16;2082237;28;1016;-62
2021/09/12 00:29:26;;;;;;;;;;;;;;;21.66;55.49;100795.63;2083049;28;918;-62
2021/09/12 00:30:27;;;;;;;;;;;;;;;21.67;55.53;100798.28;2083307;28;887;-62
2021/09/12 00:31:27;;;;;;;;;;;;;;;21.68;55.65;100797.34;2082844;28;878;-62
2021/09/12 00:32:27;;;;;;;;;;;;;;;21.67;55.09;100792.00;2082909;28;1922;-62
2021/09/12 00:33:31;;;;;;;;;;;;;;;21.65;56.02;100799.28;2082594;28;765;-62
2021/09/12 00:34:31;;;;;;;;;;;;;;;21.65;55.12;100797.47;2082795;28;811;-62
2021/09/12 00:35:31;;;;;;;;;;;;;;;21.66;55.07;100793.84;2082657;28;1020;-62
2021/09/12 00:36:31;;;;;;;;;;;;;;;21.66;55.38;100795.63;2083307;28;823;-62
2021/09/12 00:37:31;;;;;;;;;;;;;;;21.65;54.91;100794.78;2083089;28;819;-62
2021/09/12 00:38:32;;;;;;;;;;;;;;;21.65;56.12;100792.09;2083059;28;760;-62
2021/09/12 00:39:32;;;;;;;;;;;;;;;21.66;55.17;100790.25;2082775;28;996;-61
2021/09/12 00:40:32;;;;;;;;;;;;;;;21.68;55.17;100782.97;2082099;28;1093;-62
2021/09/12 00:41:42;;;;;;;;;;;;;;;21.64;55.49;100789.44;2082837;28;835;-62
2021/09/12 00:42:42;;;;;;;;;;;;;;;21.62;55.12;100790.38;2082524;28;868;-62
2021/09/12 00:43:42;;;;;;;;;;;;;;;21.65;55.10;100785.78;2082601;28;962;-62
2021/09/12 00:44:42;;;;;;;;;;;;;;;21.65;55.47;100785.78;2082883;28;855;-62
2021/09/12 00:45:42;;;;;;;;;;;;;;;21.65;55.36;100788.50;2082338;28;1285;-61
2021/09/12 00:46:44;;;;;;;;;;;;;;;21.62;55.11;100781.41;2082698;28;1021;-62
2021/09/12 00:47:44;;;;;;;;;;;;;;;21.61;55.27;100785.00;2083173;28;949;-61
2021/09/12 00:48:44;;;;;;;;;;;;;;;21.65;55.70;100780.41;2082932;28;796;-62
2021/09/12 00:49:45;;;;;;;;;;;;;;;21.64;55.43;100781.34;2082295;28;1065;-62
2021/09/12 00:50:45;;;;;;;;;;;;;;;21.62;55.26;100779.59;2083131;28;775;-62
2021/09/12 00:51:45;;;;;;;;;;;;;;;21.64;55.21;100775.94;2073991;28;1286;-62
2021/09/12 00:52:46;;;;;;;;;;;;;;;21.63;55.10;100783.16;2073711;28;1963;-62
2021/09/12 00:53:48;;;;;;;;;;;;;;;21.63;55.48;100783.16;2083028;28;740;-62
2021/09/12 00:54:49;;;;;;;;;;;;;;;21.64;55.47;100778.66;2083169;28;775;-62
2021/09/12 00:55:50;;;;;;;;;;;;;;;21.64;55.09;100782.22;2082784;28;1064;-62
2021/09/12 00:56:50;;;;;;;;;;;;;;;21.62;55.57;100778.72;2082729;28;982;-62
2021/09/12 00:57:50;;;;;;;;;;;;;;;21.64;55.35;100778.66;2082630;28;1009;-62
2021/09/12 00:58:52;;;;;;;;;;;;;;;21.63;55.13;100775.09;2082492;28;980;-62
2021/09/12 00:59:52;;;;;;;;;;;;;;;21.62;55.04;100771.50;2082675;28;988;-62
2021/09/12 01:00:52;;;;;;;;;;;;;;;21.62;55.01;100770.63;2082808;28;880;-62
2021/09/12 01:01:53;;;;;;;;;;;;;;;21.62;55.41;100767.94;2083218;28;894;-62
2021/09/12 01:02:54;;;;;;;;;;;;;;;21.62;55.42;100763.41;2083019;28;1211;-62
2021/09/12 01:03:54;;;;;;;;;;;;;;;21.62;55.11;100773.31;2082614;28;855;-62
2021/09/12 01:04:54;;;;;;;;;;;;;;;21.64;56.08;100768.75;2083144;28;838;-63
2021/09/12 01:05:54;;;;;;;;;;;;;;;21.62;54.96;100767.94;2082489;28;827;-62
2021/09/12 01:06:54;;;;;;;;;;;;;;;21.60;54.99;100761.69;2073775;28;1354;-62
2021/09/12 01:07:55;;;;;;;;;;;;;;;21.61;55.90;100766.16;2073968;28;926;-62
2021/09/12 01:08:55;;;;;;;;;;;;;;;21.61;55.29;100774.22;2082209;28;1044;-62
2021/09/12 01:09:55;;;;;;;;;;;;;;;21.63;54.98;100772.38;2082659;28;985;-62
2021/09/12 01:10:55;;;;;;;;;;;;;;;21.62;55.06;100773.31;2082675;28;815;-63
2021/09/12 01:11:57;;;;;;;;;;;;;;;21.61;55.35;100777.78;2082905;28;1319;-62
2021/09/12 01:12:57;;;;;;;;;;;;;;;21.64;55.17;100782.22;2082536;28;1898;-62
2021/09/12 01:13:57;;;;;;;;;;;;;;;21.63;55.18;100780.47;2083117;28;803;-62
2021/09/12 01:14:57;;;;;;;;;;;;;;;21.60;55.44;100781.44;2082884;28;989;-62
2021/09/12 01:15:57;;;;;;;;;;;;;;;21.60;55.90;100776.03;2082724;28;1001;-62
2021/09/12 01:16:57;;;;;;;;;;;;;;;21.62;55.04;100779.59;2082766;28;763;-62
2021/09/12 01:17:58;;;;;;;;;;;;;;;21.61;55.80;100776.94;2082510;28;894;-62
2021/09/12 01:18:58;;;;;;;;;;;;;;;21.61;55.46;100777.78;2082711;28;856;-62
2021/09/12 01:19:58;;;;;;;;;;;;;;;21.64;55.71;100776.84;2082780;28;1085;-62
2021/09/12 01:20:59;;;;;;;;;;;;;;;21.60;56.03;100776.03;2082830;28;1154;-62
2021/09/12 01:22:00;;;;;;;;;;;;;;;21.62;55.12;100771.50;2082902;28;977;-62
2021/09/12 01:23:01;;;;;;;;;;;;;;;21.63;55.25;100777.78;2081995;28;1254;-62
2021/09/12 01:24:01;;;;;;;;;;;;;;;21.61;55.53;100776.94;2073989;28;1332;-62
2021/09/12 01:25:01;;;;;;;;;;;;;;;21.64;55.29;100774.16;2074035;28;890;-62
2021/09/12 01:26:02;;;;;;;;;;;;;;;21.62;55.56;100773.31;2082747;28;962;-62
2021/09/12 01:27:02;;;;;;;;;;;;;;;21.61;55.28;100777.78;2082846;28;830;-62
2021/09/12 01:28:03;;;;;;;;;;;;;;;21.59;55.62;100773.41;2082790;28;1018;-62
2021/09/12 01:29:04;;;;;;;;;;;;;;;21.64;54.95;100771.44;2082065;28;1108;-62
2021/09/12 01:30:04;;;;;;;;;;;;;;;21.62;55.09;100773.31;2082000;28;894;-62
2021/09/12 01:31:04;;;;;;;;;;;;;;;21.61;55.37;100769.72;2082866;28;830;-62
2021/09/12 01:32:05;;;;;;;;;;;;;;;21.59;55.25;100763.50;2082908;28;1009;-62
2021/09/12 01:33:05;;;;;;;;;;;;;;;21.59;55.97;100770.72;2082860;28;1975;-62
2021/09/12 01:34:05;;;;;;;;;;;;;;;21.61;55.44;100763.44;2082763;28;1012;-62
2021/09/12 01:35:05;;;;;;;;;;;;;;;21.59;55.79;100763.50;2082672;28;787;-62
2021/09/12 01:36:05;;;;;;;;;;;;;;;21.60;55.03;100767.09;2082928;28;843;-62
2021/09/12 01:37:06;;;;;;;;;;;;;;;21.59;54.79;100773.41;2082471;28;1013;-63
2021/09/12 01:38:06;;;;;;;;;;;;;;;21.58;55.07;100771.66;2082676;28;781;-63
2021/09/12 01:39:06;;;;;;;;;;;;;;;21.62;55.59;100767.94;2082968;28;917;-62
2021/09/12 01:40:07;;;;;;;;;;;;;;;21.63;55.08;100777.78;2082769;28;807;-62
2021/09/12 01:41:07;;;;;;;;;;;;;;;21.60;55.27;100772.47;2075101;28;1602;-62
2021/09/12 01:42:07;;;;;;;;;;;;;;;21.57;55.50;100769.91;2074771;28;920;-62
2021/09/12 01:43:07;;;;;;;;;;;;;;;21.59;55.50;100763.50;2074469;28;1017;-63
2021/09/12 01:44:07;;;;;;;;;;;;;;;21.60;55.66;100769.78;2074769;28;683;-62
2021/09/12 01:45:08;;;;;;;;;;;;;;;21.59;55.53;100766.19;2074345;28;775;-63
2021/09/12 01:46:08;;;;;;;;;;;;;;;21.61;55.09;100766.16;2074686;28;827;-63
2021/09/12 01:47:08;;;;;;;;;;;;;;;21.59;55.07;100770.72;2074571;28;835;-63
2021/09/12 01:48:08;;;;;;;;;;;;;;;21.59;55.12;100771.56;2073890;28;969;-62
2021/09/12 01:49:08;;;;;;;;;;;;;;;21.57;55.54;100767.19;2074615;28;1028;-62
2021/09/12 01:50:09;;;;;;;;;;;;;;;21.60;55.98;100762.56;2074652;28;764;-62
2021/09/12 01:51:09;;;;;;;;;;;;;;;21.60;54.82;100765.25;2074606;28;930;-63
2021/09/12 01:52:13;;;;;;;;;;;;;;;21.57;55.31;100762.69;2074745;28;701;-62
2021/09/12 01:53:14;;;;;;;;;;;;;;;21.58;55.14;100756.34;2074432;28;1890;-62
2021/09/12 01:54:14;;;;;;;;;;;;;;;21.60;55.22;100759.00;2074900;28;1017;-62
2021/09/12 01:55:14;;;;;;;;;;;;;;;21.58;55.23;100764.44;2075575;28;664;-62
2021/09/12 01:56:15;;;;;;;;;;;;;;;21.60;55.00;100762.56;2076140;28;748;-62
2021/09/12 01:57:15;;;;;;;;;;;;;;;21.58;55.56;100761.72;2067041;28;1314;-62
2021/09/12 01:58:15;;;;;;;;;;;;;;;21.60;56.05;100764.38;2067366;28;772;-62
2021/09/12 01:59:16;;;;;;;;;;;;;;;21.59;55.19;100757.25;2075615;28;827;-62
2021/09/12 02:00:16;;;;;;;;;;;;;;;21.60;55.17;100759.84;2076186;28;844;-62
2021/09/12 02:01:16;;;;;;;;;;;;;;;21.59;55.08;100758.09;2076084;28;827;-62
2021/09/12 02:02:16;;;;;;;;;;;;;;;21.59;54.83;100757.25;2075869;28;823;-63
2021/09/12 02:03:16;;;;;;;;;;;;;;;21.62;55.08;100757.16;2075811;28;1232;-62
2021/09/12 02:04:16;;;;;;;;;;;;;;;21.61;55.54;100752.66;2075932;28;739;-62
2021/09/12 02:05:17;;;;;;;;;;;;;;;21.57;55.03;100753.72;2076047;28;1322;-62
2021/09/12 02:06:17;;;;;;;;;;;;;;;21.61;54.90;100752.66;2076211;28;962;-63
2021/09/12 02:07:17;;;;;;;;;;;;;;;21.58;54.95;100756.34;2076207;28;839;-62
2021/09/12 02:08:17;;;;;;;;;;;;;;;21.59;55.44;100752.72;2075613;28;930;-62
2021/09/12 02:09:17;;;;;;;;;;;;;;;21.61;55.04;100758.06;2075529;28;780;-62
2021/09/12 02:10:17;;;;;;;;;;;;;;;21.60;54.85;100759.00;2075565;28;843;-63
2021/09/12 02:11:18;;;;;;;;;;;;;;;21.60;54.92;100748.22;2075955;28;989;-62
2021/09/12 02:12:19;;;;;;;;;;;;;;;21.58;55.61;100750.09;2075914;28;1965;-62
2021/09/12 02:13:19;;;;;;;;;;;;;;;21.58;55.33;100752.78;2076159;28;759;-62
2021/09/12 02:14:19;;;;;;;;;;;;;;;21.61;55.09;100741.88;2075887;28;839;-62
2021/09/12 02:15:19;;;;;;;;;;;;;;;21.61;55.60;100749.97;2075632;28;1005;-62
2021/09/12 02:16:21;;;;;;;;;;;;;;;21.59;55.84;100749.16;2075987;28;762;-62
2021/09/12 02:17:23;;;;;;;;;;;;;;;21.59;55.11;100751.84;2075678;28;823;-62
2021/09/12 02:18:23;;;;;;;;;;;;;;;21.58;55.48;100744.69;2076058;28;850;-62
2021/09/12 02:19:24;;;;;;;;;;;;;;;21.59;55.26;100746.47;2075874;28;870;-62
2021/09/12 02:20:24;;;;;;;;;;;;;;;21.61;55.59;100740.06;2076073;28;871;-62
2021/09/12 02:21:24;;;;;;;;;;;;;;;21.60;55.46;100742.81;2075570;28;1025;-62
2021/09/12 02:22:24;;;;;;;;;;;;;;;21.56;55.46;100742.06;2075740;28;1091;-62
2021/09/12 02:23:24;;;;;;;;;;;;;;;21.59;55.23;100735.69;2075809;28;815;-62
2021/09/12 02:24:24;;;;;;;;;;;;;;;21.60;55.23;100734.75;2075771;28;957;-63
2021/09/12 02:25:25;;;;;;;;;;;;;;;21.59;55.29;100738.38;2075984;28;969;-62
2021/09/12 02:26:25;;;;;;;;;;;;;;;21.59;55.46;100733.84;2075522;28;822;-63
2021/09/12 02:27:25;;;;;;;;;;;;;;;21.59;55.02;100735.69;2076046;28;855;-62
2021/09/12 02:28:25;;;;;;;;;;;;;;;21.58;55.47;100739.31;2075833;28;965;-62
2021/09/12 02:29:25;;;;;;;;;;;;;;;21.59;55.59;100738.38;2075802;28;744;-63
2021/09/12 02:30:26;;;;;;;;;;;;;;;21.59;55.27;100736.53;2075987;28;962;-63
2021/09/12 02:31:26;;;;;;;;;;;;;;;21.57;55.63;100738.41;2075076;28;1028;-62
2021/09/12 02:32:26;;;;;;;;;;;;;;;21.58;55.10;100739.31;2075681;28;1910;-63
2021/09/12 02:33:26;;;;;;;;;;;;;;;21.57;55.22;100738.41;2075688;28;811;-63
2021/09/12 02:34:26;;;;;;;;;;;;;;;21.62;55.49;100738.28;2075734;28;795;-63
2021/09/12 02:35:27;;;;;;;;;;;;;;;21.60;55.09;100737.44;2075529;28;668;-62
2021/09/12 02:36:27;;;;;;;;;;;;;;;21.57;55.60;100741.09;2075997;28;997;-62
2021/09/12 02:37:27;;;;;;;;;;;;;;;21.56;55.78;100742.06;2075698;28;898;-62
2021/09/12 02:38:27;;;;;;;;;;;;;;;21.58;55.00;100742.88;2075751;28;803;-62
2021/09/12 02:39:28;;;;;;;;;;;;;;;21.58;55.27;100739.31;2075776;28;1028;-63
2021/09/12 02:40:28;;;;;;;;;;;;;;;21.58;54.99;100734.78;2077964;28;1091;-62
2021/09/12 02:41:28;;;;;;;;;;;;;;;21.57;55.69;100737.56;2083590;28;960;-62
2021/09/12 02:42:28;;;;;;;;;;;;;;;21.59;55.38;100741.06;2083897;28;1012;-62
2021/09/12 02:43:29;;;;;;;;;;;;;;;21.60;55.31;100740.13;2084020;28;843;-62
2021/09/12 02:44:29;;;;;;;;;;;;;;;21.58;55.62;100737.47;2083994;28;818;-62
2021/09/12 02:45:30;;;;;;;;;;;;;;;21.58;55.55;100733.91;2083339;28;878;-62
2021/09/12 02:46:31;;;;;;;;;;;;;;;21.55;55.48;100726.81;2084151;28;961;-62
2021/09/12 02:47:31;;;;;;;;;;;;;;;21.56;55.34;100730.41;2083987;28;814;-62
2021/09/12 02:48:31;;;;;;;;;;;;;;;21.58;55.84;100733.91;2083923;28;818;-62
2021/09/12 02:49:31;;;;;;;;;;;;;;;21.58;55.11;100740.16;2083963;28;847;-62
2021/09/12 02:50:31;;;;;;;;;;;;;;;21.58;56.04;100728.53;2083465;28;973;-62
2021/09/12 02:51:31;;;;;;;;;;;;;;;21.57;55.75;100732.16;2083905;28;936;-63
2021/09/12 02:52:32;;;;;;;;;;;;;;;21.58;55.02;100731.22;2083815;28;1956;-63
2021/09/12 02:53:32;;;;;;;;;;;;;;;21.57;54.95;100732.16;2083582;28;842;-62
2021/09/12 02:54:32;;;;;;;;;;;;;;;21.58;55.58;100728.53;2083902;28;763;-63
2021/09/12 02:55:32;;;;;;;;;;;;;;;21.58;55.18;100723.13;2083588;28;1016;-62
2021/09/12 02:56:32;;;;;;;;;;;;;;;21.56;55.47;100733.09;2083469;28;1011;-63
2021/09/12 02:57:33;;;;;;;;;;;;;;;21.56;55.20;100731.25;2083742;28;825;-62
2021/09/12 02:58:33;;;;;;;;;;;;;;;21.56;55.47;100730.41;2083916;28;845;-63
2021/09/12 02:59:33;;;;;;;;;;;;;;;21.57;55.12;100735.72;2083863;28;778;-62
2021/09/12 03:00:33;;;;;;;;;;;;;;;21.57;55.83;100729.47;2083620;28;1103;-62
2021/09/12 03:01:33;;;;;;;;;;;;;;;21.57;55.00;100729.47;2075396;28;792;-63
2021/09/12 03:02:34;;;;;;;;;;;;;;;21.57;55.44;100733.03;2075590;28;901;-63
2021/09/12 03:03:34;;;;;;;;;;;;;;;21.58;55.74;100731.22;2075371;28;818;-62
2021/09/12 03:04:34;;;;;;;;;;;;;;;21.59;55.54;100735.69;2075514;28;775;-62
2021/09/12 03:05:34;;;;;;;;;;;;;;;21.56;55.24;100731.25;2074817;28;1016;-62
2021/09/12 03:06:34;;;;;;;;;;;;;;;21.56;55.16;100722.31;2075148;28;775;-62
2021/09/12 03:07:35;;;;;;;;;;;;;;;21.56;55.03;100731.25;2075071;28;1290;-62
2021/09/12 03:08:35;;;;;;;;;;;;;;;21.57;54.75;100726.78;2075767;28;764;-62
2021/09/12 03:09:35;;;;;;;;;;;;;;;21.55;54.90;100729.50;2075275;28;942;-63
2021/09/12 03:10:35;;;;;;;;;;;;;;;21.56;55.86;100736.66;2075798;28;807;-62
2021/09/12 03:11:35;;;;;;;;;;;;;;;21.56;55.23;100733.97;2075617;28;981;-62
2021/09/12 03:12:35;;;;;;;;;;;;;;;21.56;55.21;100731.25;2074985;28;1894;-62
2021/09/12 03:13:36;;;;;;;;;;;;;;;21.57;54.98;100730.31;2075698;28;775;-63
2021/09/12 03:14:36;;;;;;;;;;;;;;;21.55;55.38;100729.50;2075449;28;869;-62
2021/09/12 03:15:36;;;;;;;;;;;;;;;21.58;55.08;100733.91;2075523;28;1027;-62
2021/09/12 03:16:36;;;;;;;;;;;;;;;21.57;55.23;100732.16;2075613;28;787;-63
2021/09/12 03:17:36;;;;;;;;;;;;;;;21.56;55.36;100735.78;2066631;28;1275;-62
2021/09/12 03:18:37;;;;;;;;;;;;;;;21.54;55.29;100733.16;2066833;28;801;-63
2021/09/12 03:19:37;;;;;;;;;;;;;;;21.53;55.27;100736.78;2075349;28;846;-62
2021/09/12 03:20:37;;;;;;;;;;;;;;;21.53;55.28;100736.78;2075333;28;949;-63
2021/09/12 03:21:38;;;;;;;;;;;;;;;21.52;55.12;100735.03;2075427;28;882;-63
2021/09/12 03:22:38;;;;;;;;;;;;;;;21.56;55.50;100735.78;2075445;28;1305;-63
2021/09/12 03:23:38;;;;;;;;;;;;;;;21.55;55.88;100734.03;2074971;28;1036;-62
2021/09/12 03:24:38;;;;;;;;;;;;;;;21.56;55.16;100733.97;2075257;28;965;-62
2021/09/12 03:25:38;;;;;;;;;;;;;;;21.55;55.89;100736.72;2075480;28;984;-62
2021/09/12 03:26:39;;;;;;;;;;;;;;;21.55;54.83;100729.50;2075532;28;822;-62
2021/09/12 03:27:39;;;;;;;;;;;;;;;21.52;55.18;100735.03;2075474;28;1024;-62
2021/09/12 03:28:39;;;;;;;;;;;;;;;21.54;55.43;100734.97;2075254;28;791;-62
2021/09/12 03:29:39;;;;;;;;;;;;;;;21.53;55.49;100733.22;2074909;28;1070;-63
2021/09/12 03:30:39;;;;;;;;;;;;;;;21.52;55.41;100737.72;2075547;28;1225;-62
2021/09/12 03:31:39;;;;;;;;;;;;;;;21.54;55.13;100733.16;2075535;28;977;-63
2021/09/12 03:32:40;;;;;;;;;;;;;;;21.50;55.45;100731.50;2075392;28;1971;-62
2021/09/12 03:33:40;;;;;;;;;;;;;;;21.54;55.72;100732.28;2075418;28;973;-62
2021/09/12 03:34:40;;;;;;;;;;;;;;;21.55;55.36;100734.03;2075279;28;965;-62
2021/09/12 03:35:40;;;;;;;;;;;;;;;21.53;56.17;100731.38;2075198;28;793;-63
2021/09/12 03:36:41;;;;;;;;;;;;;;;21.51;55.24;100735.97;2074754;28;862;-62
2021/09/12 03:37:41;;;;;;;;;;;;;;;21.53;55.28;100734.06;2075176;28;908;-62
2021/09/12 03:38:41;;;;;;;;;;;;;;;21.53;55.38;100736.78;2075349;28;964;-63
2021/09/12 03:39:41;;;;;;;;;;;;;;;21.53;55.89;100738.59;2075402;28;791;-63
2021/09/12 03:40:41;;;;;;;;;;;;;;;21.52;55.75;100747.63;2075551;28;847;-63
2021/09/12 03:41:42;;;;;;;;;;;;;;;21.51;55.42;100740.47;2075010;28;810;-63
2021/09/12 03:42:42;;;;;;;;;;;;;;;21.53;55.44;100741.31;2075032;28;901;-63
2021/09/12 03:43:42;;;;;;;;;;;;;;;21.53;55.14;100742.16;2075062;28;1135;-63
2021/09/12 03:44:42;;;;;;;;;;;;;;;21.53;55.44;100736.78;2075335;28;1004;-63
2021/09/12 03:45:43;;;;;;;;;;;;;;;21.50;55.47;100730.63;2075436;28;1114;-63
2021/09/12 03:46:43;;;;;;;;;;;;;;;21.55;55.68;100734.91;2075119;28;1021;-63
2021/09/12 03:47:43;;;;;;;;;;;;;;;21.55;55.79;100737.59;2075098;28;756;-63
2021/09/12 03:48:43;;;;;;;;;;;;;;;21.52;55.86;100740.41;2075189;28;969;-63
2021/09/12 03:49:43;;;;;;;;;;;;;;;21.51;55.72;100727.88;2075297;28;997;-63
2021/09/12 03:50:44;;;;;;;;;;;;;;;21.52;56.17;100737.72;2075367;28;796;-63
2021/09/12 03:51:44;;;;;;;;;;;;;;;21.52;55.77;100728.75;2075129;28;1016;-63
2021/09/12 03:52:44;;;;;;;;;;;;;;;21.48;55.46;100731.56;2074889;28;1943;-63
2021/09/12 03:53:44;;;;;;;;;;;;;;;21.51;55.46;100735.09;2074537;28;771;-63
2021/09/12 03:54:44;;;;;;;;;;;;;;;21.52;56.05;100736.84;2075395;28;840;-63
2021/09/12 03:55:44;;;;;;;;;;;;;;;21.50;56.05;100733.34;2074955;28;954;-63
2021/09/12 03:56:44;;;;;;;;;;;;;;;21.53;55.21;100730.53;2075304;28;1102;-63
2021/09/12 03:57:45;;;;;;;;;;;;;;;21.53;55.22;100735.91;2075171;28;819;-63
2021/09/12 03:58:45;;;;;;;;;;;;;;;21.48;55.39;100726.19;2074626;28;997;-63
2021/09/12 03:59:45;;;;;;;;;;;;;;;21.52;55.52;100723.38;2075041;28;831;-63
2021/09/12 04:00:45;;;;;;;;;;;;;;;21.50;56.10;100726.13;2075183;28;926;-63
2021/09/12 04:01:45;;;;;;;;;;;;;;;21.51;56.20;100721.63;2075406;28;969;-63
2021/09/12 04:02:46;;;;;;;;;;;;;;;21.71;54.84;100716.34;2075172;28;981;-63
2021/09/12 04:03:46;;;;;;;;;;;;;;;22.03;54.09;100708.75;2075180;28;792;-63
2021/09/12 04:04:47;;;;;;;;;;;;;;;22.17;54.12;100710.00;2074986;28;922;-63
2021/09/12 04:05:47;;;;;;;;;;;;;;;22.27;53.45;100705.06;2075249;28;766;-63
2021/09/12 04:06:47;;;;;;;;;;;;;;;22.32;53.56;100706.66;2075168;28;819;-63
2021/09/12 04:07:47;;;;;;;;;;;;;;;22.39;53.52;100709.97;2075014;28;1024;-63
2021/09/12 04:08:47;;;;;;;;;;;;;;;22.43;52.91;100706.19;2075030;28;791;-63
2021/09/12 04:09:47;;;;;;;;;;;;;;;22.48;53.22;100703.31;2074609;28;843;-63
2021/09/12 04:10:48;;;;;;;;;;;;;;;22.52;53.18;100704.94;2075255;28;1240;-63
2021/09/12 04:11:48;;;;;;;;;;;;;;;22.58;52.78;100703.81;2075268;28;1535;-63
2021/09/12 04:12:48;;;;;;;;;;;;;;;22.61;52.25;100704.53;2075079;28;1894;-63
2021/09/12 04:13:48;;;;;;;;;;;;;;;22.63;51.80;100704.47;2074279;28;1318;-63
2021/09/12 04:14:48;;;;;;;;;;;;;;;22.67;52.10;100707.91;2074301;28;784;-63
2021/09/12 04:15:48;;;;;;;;;;;;;;;22.69;52.04;100711.41;2074820;28;1382;-63
2021/09/12 04:16:49;;;;;;;;;;;;;;;22.70;52.61;100711.31;2074788;28;760;-63
2021/09/12 04:17:49;;;;;;;;;;;;;;;22.72;51.90;100706.75;2074347;28;867;-63
2021/09/12 04:18:49;;;;;;;;;;;;;;;22.74;51.79;100725.59;2074133;28;803;-63
2021/09/12 04:19:49;;;;;;;;;;;;;;;22.74;51.77;100710.25;2074267;28;910;-63
2021/09/12 04:20:49;;;;;;;;;;;;;;;22.77;52.26;100714.66;2075131;28;970;-63
2021/09/12 04:21:49;;;;;;;;;;;;;;;22.79;51.70;100712.75;2075226;28;796;-63
2021/09/12 04:22:50;;;;;;;;;;;;;;;22.79;51.58;100716.31;2074896;28;1193;-63
2021/09/12 04:23:50;;;;;;;;;;;;;;;22.80;52.40;100714.53;2074859;28;989;-63
2021/09/12 04:24:50;;;;;;;;;;;;;;;22.83;52.08;100717.09;2075292;28;1025;-63
2021/09/12 04:25:50;;;;;;;;;;;;;;;22.84;52.09;100708.03;2075150;28;811;-63
2021/09/12 04:26:50;;;;;;;;;;;;;;;22.85;51.41;100712.50;2075231;28;855;-63
2021/09/12 04:27:51;;;;;;;;;;;;;;;22.86;51.71;100718.75;2075261;28;811;-63
2021/09/12 04:28:51;;;;;;;;;;;;;;;22.86;51.83;100718.75;2075067;28;847;-63
2021/09/12 04:29:51;;;;;;;;;;;;;;;22.87;51.41;100715.09;2074949;28;847;-63
2021/09/12 04:30:51;;;;;;;;;;;;;;;22.89;51.80;100713.22;2075092;28;788;-63
2021/09/12 04:31:51;;;;;;;;;;;;;;;22.88;51.92;100706.06;2075111;28;918;-63
2021/09/12 04:32:51;;;;;;;;;;;;;;;22.88;52.20;100711.47;2075075;28;1906;-63
2021/09/12 04:33:51;;;;;;;;;;;;;;;22.88;51.37;100708.75;2074918;28;977;-63
2021/09/12 04:34:52;;;;;;;;;;;;;;;22.87;52.19;100710.59;2075025;28;843;-64
2021/09/12 04:35:52;;;;;;;;;;;;;;;22.89;51.47;100710.50;2075167;28;898;-63
2021/09/12 04:36:52;;;;;;;;;;;;;;;22.90;51.81;100705.06;2074802;28;953;-63
2021/09/12 04:37:52;;;;;;;;;;;;;;;22.91;51.72;100708.63;2074982;28;830;-63
2021/09/12 04:38:52;;;;;;;;;;;;;;;22.89;51.55;100708.72;2074995;28;879;-63
2021/09/12 04:39:52;;;;;;;;;;;;;;;22.91;52.05;100708.63;2074977;28;1020;-63
2021/09/12 04:40:53;;;;;;;;;;;;;;;22.94;51.19;100703.97;2080997;28;1229;-63
2021/09/12 04:41:53;;;;;;;;;;;;;;;22.95;51.31;100711.13;2075993;28;1228;-63
2021/09/12 04:42:53;;;;;;;;;;;;;;;22.92;51.36;100710.38;2074803;28;973;-63
2021/09/12 04:43:53;;;;;;;;;;;;;;;22.94;51.80;100713.88;2075095;28;1011;-63
2021/09/12 04:44:53;;;;;;;;;;;;;;;22.95;51.98;100712.94;2074874;28;831;-64
2021/09/12 04:45:53;;;;;;;;;;;;;;;22.97;51.30;100716.44;2074960;28;961;-64
2021/09/12 04:46:54;;;;;;;;;;;;;;;22.94;51.07;100714.78;2074942;28;1014;-63
2021/09/12 04:47:54;;;;;;;;;;;;;;;22.97;51.25;100712.84;2074729;28;1017;-63
2021/09/12 04:48:54;;;;;;;;;;;;;;;22.97;51.06;100710.16;2074903;28;831;-63
2021/09/12 04:49:54;;;;;;;;;;;;;;;22.94;51.25;100712.06;2075070;28;965;-65
2021/09/12 04:50:55;;;;;;;;;;;;;;;22.94;52.09;100716.59;2074943;28;787;-67
2021/09/12 04:51:55;;;;;;;;;;;;;;;22.91;51.68;100712.22;2075019;28;839;-67
2021/09/12 04:52:55;;;;;;;;;;;;;;;22.91;51.68;100706.81;2074862;28;1890;-65
2021/09/12 04:53:56;;;;;;;;;;;;;;;22.93;51.80;100709.44;2074635;28;879;-65
2021/09/12 04:54:56;;;;;;;;;;;;;;;22.91;52.07;100706.81;2074936;28;835;-63
2021/09/12 04:55:56;;;;;;;;;;;;;;;22.93;51.56;100706.72;2074882;28;901;-63
2021/09/12 04:56:56;;;;;;;;;;;;;;;22.91;52.14;100704.13;2074992;28;942;-63
2021/09/12 04:57:56;;;;;;;;;;;;;;;22.93;51.62;100696.81;2075117;28;764;-63
2021/09/12 04:58:56;;;;;;;;;;;;;;;22.95;51.83;100704.84;2074502;28;1012;-63
2021/09/12 04:59:57;;;;;;;;;;;;;;;22.94;51.34;100705.78;2075060;28;657;-63
2021/09/12 05:00:57;;;;;;;;;;;;;;;22.97;51.31;100705.66;2075084;28;914;-62
2021/09/12 05:01:57;;;;;;;;;;;;;;;22.96;51.96;100695.78;2075018;28;804;-63
2021/09/12 05:02:57;;;;;;;;;;;;;;;22.95;51.57;100700.31;2075076;28;924;-62
2021/09/12 05:03:57;;;;;;;;;;;;;;;22.99;51.47;100697.47;2074775;28;969;-63
2021/09/12 05:04:58;;;;;;;;;;;;;;;22.98;51.53;100698.41;2074735;28;933;-63
2021/09/12 05:05:58;;;;;;;;;;;;;;;22.99;51.59;100702.84;2074774;28;957;-63
2021/09/12 05:06:58;;;;;;;;;;;;;;;23.00;51.54;100693.81;2074997;28;752;-62
2021/09/12 05:07:58;;;;;;;;;;;;;;;23.01;51.28;100704.56;2074926;28;969;-63
2021/09/12 05:08:58;;;;;;;;;;;;;;;23.00;52.29;100701.91;2074793;28;818;-63
2021/09/12 05:09:58;;;;;;;;;;;;;;;23.01;51.33;100695.56;2074456;28;973;-62
2021/09/12 05:10:58;;;;;;;;;;;;;;;23.01;51.58;100700.97;2074820;28;970;-62
2021/09/12 05:11:59;;;;;;;;;;;;;;;23.01;51.28;100701.84;2075061;28;819;-62
2021/09/12 05:12:59;;;;;;;;;;;;;;;23.02;51.42;100697.31;2074713;28;1944;-62
2021/09/12 05:13:59;;;;;;;;;;;;;;;23.06;51.25;100701.63;2074957;28;970;-62
2021/09/12 05:14:59;;;;;;;;;;;;;;;23.03;51.12;100696.38;2074508;28;922;-63
2021/09/12 05:15:59;;;;;;;;;;;;;;;23.02;51.23;100697.31;2074603;28;855;-62
2021/09/12 05:16:59;;;;;;;;;;;;;;;23.02;51.67;100695.50;2074919;28;1016;-62